<?xml version="1.0" encoding="UTF-8" standalone="no" ?>
<gpx xmlns="http://www.topografix.com/GPX/1/1" xmlns:xsi="http://www.w3.org/2001/XMLSchema-instance" xsi:schemaLocation="http://www.topografix.com/GPX/1/1 http://www.topografix.com/GPX/1/1/gpx.xsd" version="1.1" creator="VisuGPX - https://www.visugpx.com">
  <metadata>
    <name>Les cabanes de bergers et le Bois du Chanay au départ de Mirebel</name>
  </metadata>
  <wpt lat="46.69854" lon="5.73306">
    <ele>616</ele>
    <name><![CDATA[Parking de l']]></name>
  </wpt>
  <wpt lat="46.7017" lon="5.72448">
    <ele>566</ele>
    <name><![CDATA[Route de la Marre]]></name>
  </wpt>
  <wpt lat="46.70671" lon="5.73042">
    <ele>570</ele>
    <name><![CDATA[Fourche A/R]]></name>
  </wpt>
  <wpt lat="46.7168" lon="5.7098">
    <ele>539</ele>
    <name><![CDATA[Route de La Marre]]></name>
  </wpt>
  <wpt lat="46.71404" lon="5.69992">
    <ele>526</ele>
    <name><![CDATA[Zone de cabanes de bergers de Mirebel]]></name>
  </wpt>
  <wpt lat="46.71071" lon="5.69936">
    <ele>527</ele>
    <name><![CDATA[Zone de la ville d'An]]></name>
  </wpt>
  <wpt lat="46.70849" lon="5.69775">
    <ele>534</ele>
    <name><![CDATA[Le puits d'An]]></name>
  </wpt>
  <wpt lat="46.70917" lon="5.69503">
    <ele>535</ele>
    <name><![CDATA[Sortie de la forêt]]></name>
  </wpt>
  <wpt lat="46.71021" lon="5.69455">
    <ele>532</ele>
    <name><![CDATA[Cabane de berger remarquable]]></name>
  </wpt>
  <wpt lat="46.70612" lon="5.68827">
    <ele>525</ele>
    <name><![CDATA[Les trois cabanes]]></name>
  </wpt>
  <wpt lat="46.71179" lon="5.68019">
    <ele>519</ele>
    <name><![CDATA[Cabane en cours de sauvegarde]]></name>
  </wpt>
  <wpt lat="46.71805" lon="5.69704">
    <ele>527</ele>
    <name><![CDATA[Bifurcation en T]]></name>
  </wpt>
  <wpt lat="46.72847" lon="5.70943">
    <ele>529</ele>
    <name><![CDATA[Route La Marre]]></name>
  </wpt>
  <wpt lat="46.72563" lon="5.72845">
    <ele>556</ele>
    <name><![CDATA[Chemin blanc Mirebel-Bonnefontaine]]></name>
  </wpt>
  <wpt lat="46.72965" lon="5.73068">
    <ele>551</ele>
    <name><![CDATA[Chemein blanc Mirebel-Bonnefontaine]]></name>
  </wpt>
  <wpt lat="46.72785" lon="5.74437">
    <ele>577</ele>
    <name><![CDATA[Rue Juive]]></name>
  </wpt>
  <wpt lat="46.72049" lon="5.73949">
    <ele>577</ele>
    <name><![CDATA[Le Patouillet]]></name>
  </wpt>
  <wpt lat="46.70023" lon="5.73248">
    <ele>596</ele>
    <name><![CDATA[Le Youto et le Petit Château]]></name>
  </wpt>
  <wpt lat="46.69861" lon="5.73303">
    <ele>616</ele>
    <name><![CDATA[Parking de l']]></name>
  </wpt>
  <trk>
    <name><![CDATA[Les cabanes de bergers et le Bois du Chanay au départ de Mirebel]]></name>
    <trkseg>
      <trkpt lat="46.69854" lon="5.73306">
        <ele>616</ele>
        <time>2020-04-04T14:46:19+02:00</time>
      </trkpt>
      <trkpt lat="46.69861" lon="5.73264">
        <ele>610</ele>
        <time>2021-04-08T11:15:24+02:00</time>
      </trkpt>
      <trkpt lat="46.69892" lon="5.73246">
        <ele>600</ele>
        <time>2021-04-08T11:15:29+02:00</time>
      </trkpt>
      <trkpt lat="46.69953" lon="5.73237">
        <ele>597</ele>
        <time>2021-04-08T11:15:34+02:00</time>
      </trkpt>
      <trkpt lat="46.69966" lon="5.73229">
        <ele>596</ele>
        <time>2020-04-04T14:46:24+02:00</time>
      </trkpt>
      <trkpt lat="46.69939" lon="5.73168">
        <ele>593</ele>
        <time>2021-04-08T11:15:44+02:00</time>
      </trkpt>
      <trkpt lat="46.69938" lon="5.73112">
        <ele>588</ele>
        <time>2020-04-04T14:46:29+02:00</time>
      </trkpt>
      <trkpt lat="46.69969" lon="5.72932">
        <ele>585</ele>
        <time>2020-04-04T14:46:34+02:00</time>
      </trkpt>
      <trkpt lat="46.69952" lon="5.72904">
        <ele>585</ele>
        <time>2021-04-08T11:15:59+02:00</time>
      </trkpt>
      <trkpt lat="46.7" lon="5.72792">
        <ele>582</ele>
        <time>2021-04-08T11:16:04+02:00</time>
      </trkpt>
      <trkpt lat="46.69997" lon="5.72748">
        <ele>581</ele>
        <time>2020-04-04T14:46:39+02:00</time>
      </trkpt>
      <trkpt lat="46.69988" lon="5.72619">
        <ele>578</ele>
        <time>2020-04-04T14:46:44+02:00</time>
      </trkpt>
      <trkpt lat="46.70065" lon="5.72529">
        <ele>571</ele>
        <time>2020-04-04T14:46:49+02:00</time>
      </trkpt>
      <trkpt lat="46.7007" lon="5.72431">
        <ele>568</ele>
        <time>2020-04-04T14:46:54+02:00</time>
      </trkpt>
      <trkpt lat="46.7017" lon="5.72448">
        <ele>566</ele>
        <time>2020-04-04T14:46:59+02:00</time>
      </trkpt>
      <trkpt lat="46.70203" lon="5.72568">
        <ele>566</ele>
        <time>2020-04-04T14:47:04+02:00</time>
      </trkpt>
      <trkpt lat="46.70365" lon="5.72637">
        <ele>564</ele>
        <time>2020-04-04T14:47:09+02:00</time>
      </trkpt>
      <trkpt lat="46.70344" lon="5.72752">
        <ele>568</ele>
        <time>2020-04-04T14:47:14+02:00</time>
      </trkpt>
      <trkpt lat="46.70635" lon="5.72946">
        <ele>567</ele>
        <time>2020-04-04T14:47:19+02:00</time>
      </trkpt>
      <trkpt lat="46.70671" lon="5.73042">
        <ele>570</ele>
        <time>2020-04-04T14:47:24+02:00</time>
      </trkpt>
      <trkpt lat="46.70768" lon="5.73087">
        <ele>570</ele>
        <time>2020-04-04T14:47:29+02:00</time>
      </trkpt>
      <trkpt lat="46.70827" lon="5.73057">
        <ele>570</ele>
        <time>2020-04-04T14:47:34+02:00</time>
      </trkpt>
      <trkpt lat="46.70831" lon="5.72996">
        <ele>569</ele>
        <time>2020-04-04T14:47:39+02:00</time>
      </trkpt>
      <trkpt lat="46.70815" lon="5.72907">
        <ele>565</ele>
        <time>2020-04-04T14:47:44+02:00</time>
      </trkpt>
      <trkpt lat="46.7088" lon="5.72791">
        <ele>565</ele>
        <time>2020-04-04T14:47:49+02:00</time>
      </trkpt>
      <trkpt lat="46.70944" lon="5.72765">
        <ele>569</ele>
        <time>2020-04-04T14:47:54+02:00</time>
      </trkpt>
      <trkpt lat="46.71056" lon="5.72589">
        <ele>566</ele>
        <time>2020-04-04T14:47:59+02:00</time>
      </trkpt>
      <trkpt lat="46.7108" lon="5.72585">
        <ele>565</ele>
        <time>2020-04-04T14:48:04+02:00</time>
      </trkpt>
      <trkpt lat="46.71339" lon="5.72323">
        <ele>560</ele>
        <time>2020-04-04T14:48:09+02:00</time>
      </trkpt>
      <trkpt lat="46.71409" lon="5.72049">
        <ele>552</ele>
        <time>2020-04-04T14:48:14+02:00</time>
      </trkpt>
      <trkpt lat="46.71459" lon="5.71813">
        <ele>545</ele>
        <time>2020-04-04T14:48:19+02:00</time>
      </trkpt>
      <trkpt lat="46.71504" lon="5.71795">
        <ele>544</ele>
        <time>2020-04-04T14:48:24+02:00</time>
      </trkpt>
      <trkpt lat="46.71571" lon="5.71602">
        <ele>544</ele>
        <time>2020-04-04T14:48:29+02:00</time>
      </trkpt>
      <trkpt lat="46.71539" lon="5.71491">
        <ele>547</ele>
        <time>2020-04-04T14:48:34+02:00</time>
      </trkpt>
      <trkpt lat="46.71565" lon="5.71349">
        <ele>549</ele>
        <time>2020-04-04T14:48:39+02:00</time>
      </trkpt>
      <trkpt lat="46.7168" lon="5.7098">
        <ele>539</ele>
        <time>2020-04-04T14:48:44+02:00</time>
      </trkpt>
      <trkpt lat="46.71542" lon="5.70937">
        <ele>542</ele>
        <time>2020-04-04T14:48:49+02:00</time>
      </trkpt>
      <trkpt lat="46.71518" lon="5.70886">
        <ele>543</ele>
        <time>2020-04-04T14:48:54+02:00</time>
      </trkpt>
      <trkpt lat="46.71406" lon="5.70817">
        <ele>547</ele>
        <time>2020-04-04T14:48:59+02:00</time>
      </trkpt>
      <trkpt lat="46.71456" lon="5.70684">
        <ele>540</ele>
        <time>2020-04-04T14:49:04+02:00</time>
      </trkpt>
      <trkpt lat="46.71448" lon="5.70598">
        <ele>540</ele>
        <time>2020-04-04T14:49:09+02:00</time>
      </trkpt>
      <trkpt lat="46.7144" lon="5.70597">
        <ele>540</ele>
        <time>2020-04-04T14:49:14+02:00</time>
      </trkpt>
      <trkpt lat="46.71461" lon="5.70462">
        <ele>539</ele>
        <time>2020-04-04T14:49:19+02:00</time>
      </trkpt>
      <trkpt lat="46.71433" lon="5.70337">
        <ele>536</ele>
        <time>2020-04-04T14:49:24+02:00</time>
      </trkpt>
      <trkpt lat="46.7144" lon="5.70245">
        <ele>532</ele>
        <time>2020-04-04T14:49:29+02:00</time>
      </trkpt>
      <trkpt lat="46.71409" lon="5.70232">
        <ele>531</ele>
        <time>2020-04-04T14:49:34+02:00</time>
      </trkpt>
      <trkpt lat="46.71404" lon="5.70082">
        <ele>526</ele>
        <time>2020-04-04T14:49:39+02:00</time>
      </trkpt>
      <trkpt lat="46.71404" lon="5.69992">
        <ele>526</ele>
        <time>2020-04-04T14:49:44+02:00</time>
      </trkpt>
      <trkpt lat="46.71371" lon="5.69876">
        <ele>526</ele>
        <time>2020-04-04T14:49:49+02:00</time>
      </trkpt>
      <trkpt lat="46.71336" lon="5.69906">
        <ele>527</ele>
        <time>2020-04-04T14:49:54+02:00</time>
      </trkpt>
      <trkpt lat="46.7128" lon="5.6994">
        <ele>529</ele>
        <time>2020-04-04T14:49:59+02:00</time>
      </trkpt>
      <trkpt lat="46.71242" lon="5.69902">
        <ele>529</ele>
        <time>2020-04-04T14:50:04+02:00</time>
      </trkpt>
      <trkpt lat="46.71109" lon="5.69902">
        <ele>526</ele>
        <time>2020-04-04T14:50:09+02:00</time>
      </trkpt>
      <trkpt lat="46.71071" lon="5.69936">
        <ele>527</ele>
        <time>2020-04-04T14:50:14+02:00</time>
      </trkpt>
      <trkpt lat="46.71031" lon="5.69882">
        <ele>527</ele>
        <time>2020-04-04T14:50:19+02:00</time>
      </trkpt>
      <trkpt lat="46.709" lon="5.69818">
        <ele>530</ele>
        <time>2020-04-04T14:50:24+02:00</time>
      </trkpt>
      <trkpt lat="46.70849" lon="5.69775">
        <ele>534</ele>
        <time>2020-04-04T14:50:29+02:00</time>
      </trkpt>
      <trkpt lat="46.70917" lon="5.69503">
        <ele>535</ele>
        <time>2020-04-04T14:50:34+02:00</time>
      </trkpt>
      <trkpt lat="46.70946" lon="5.69502">
        <ele>534</ele>
        <time>2020-04-04T14:50:39+02:00</time>
      </trkpt>
      <trkpt lat="46.70978" lon="5.69553">
        <ele>533</ele>
        <time>2021-04-08T11:20:14+02:00</time>
      </trkpt>
      <trkpt lat="46.70996" lon="5.69574">
        <ele>532</ele>
        <time>2021-04-08T11:20:19+02:00</time>
      </trkpt>
      <trkpt lat="46.71044" lon="5.69552">
        <ele>531</ele>
        <time>2021-04-08T11:20:24+02:00</time>
      </trkpt>
      <trkpt lat="46.71058" lon="5.69481">
        <ele>532</ele>
        <time>2021-04-08T11:20:29+02:00</time>
      </trkpt>
      <trkpt lat="46.71021" lon="5.69455">
        <ele>532</ele>
        <time>2020-04-04T14:50:44+02:00</time>
      </trkpt>
      <trkpt lat="46.71059" lon="5.6948">
        <ele>532</ele>
        <time>2021-04-08T11:20:39+02:00</time>
      </trkpt>
      <trkpt lat="46.71048" lon="5.6955">
        <ele>531</ele>
        <time>2021-04-08T11:20:44+02:00</time>
      </trkpt>
      <trkpt lat="46.70998" lon="5.69574">
        <ele>532</ele>
        <time>2021-04-08T11:20:49+02:00</time>
      </trkpt>
      <trkpt lat="46.70978" lon="5.69554">
        <ele>533</ele>
        <time>2021-04-08T11:20:54+02:00</time>
      </trkpt>
      <trkpt lat="46.70944" lon="5.69499">
        <ele>534</ele>
        <time>2020-04-04T14:50:49+02:00</time>
      </trkpt>
      <trkpt lat="46.70839" lon="5.69483">
        <ele>536</ele>
        <time>2020-04-04T14:50:54+02:00</time>
      </trkpt>
      <trkpt lat="46.70743" lon="5.6944">
        <ele>535</ele>
        <time>2020-04-04T14:50:59+02:00</time>
      </trkpt>
      <trkpt lat="46.70668" lon="5.69449">
        <ele>533</ele>
        <time>2020-04-04T14:51:04+02:00</time>
      </trkpt>
      <trkpt lat="46.70619" lon="5.69365">
        <ele>530</ele>
        <time>2020-04-04T14:51:09+02:00</time>
      </trkpt>
      <trkpt lat="46.70597" lon="5.69377">
        <ele>530</ele>
        <time>2021-04-08T11:21:24+02:00</time>
      </trkpt>
      <trkpt lat="46.70575" lon="5.69465">
        <ele>531</ele>
        <time>2021-04-08T11:21:29+02:00</time>
      </trkpt>
      <trkpt lat="46.70568" lon="5.69672">
        <ele>531</ele>
        <time>2021-04-08T11:21:34+02:00</time>
      </trkpt>
      <trkpt lat="46.70491" lon="5.69885">
        <ele>529</ele>
        <time>2021-04-08T11:21:39+02:00</time>
      </trkpt>
      <trkpt lat="46.7047" lon="5.69988">
        <ele>527</ele>
        <time>2021-04-08T11:21:44+02:00</time>
      </trkpt>
      <trkpt lat="46.70392" lon="5.69916">
        <ele>525</ele>
        <time>2021-04-08T11:21:49+02:00</time>
      </trkpt>
      <trkpt lat="46.7034" lon="5.69887">
        <ele>525</ele>
        <time>2021-04-08T11:21:54+02:00</time>
      </trkpt>
      <trkpt lat="46.70307" lon="5.69836">
        <ele>527</ele>
        <time>2021-04-08T11:21:59+02:00</time>
      </trkpt>
      <trkpt lat="46.70249" lon="5.69793">
        <ele>527</ele>
        <time>2021-04-08T11:22:04+02:00</time>
      </trkpt>
      <trkpt lat="46.70286" lon="5.69698">
        <ele>527</ele>
        <time>2021-04-08T11:22:09+02:00</time>
      </trkpt>
      <trkpt lat="46.70288" lon="5.69635">
        <ele>526</ele>
        <time>2021-04-08T11:22:14+02:00</time>
      </trkpt>
      <trkpt lat="46.7036" lon="5.6946">
        <ele>526</ele>
        <time>2021-04-08T11:22:19+02:00</time>
      </trkpt>
      <trkpt lat="46.70473" lon="5.69256">
        <ele>525</ele>
        <time>2021-04-08T11:22:24+02:00</time>
      </trkpt>
      <trkpt lat="46.70496" lon="5.69269">
        <ele>526</ele>
        <time>2020-04-04T14:51:14+02:00</time>
      </trkpt>
      <trkpt lat="46.70555" lon="5.69016">
        <ele>523</ele>
        <time>2020-04-04T14:51:19+02:00</time>
      </trkpt>
      <trkpt lat="46.70575" lon="5.68932">
        <ele>523</ele>
        <time>2020-04-04T14:51:24+02:00</time>
      </trkpt>
      <trkpt lat="46.70612" lon="5.68827">
        <ele>525</ele>
        <time>2020-04-04T14:51:29+02:00</time>
      </trkpt>
      <trkpt lat="46.70724" lon="5.68711">
        <ele>525</ele>
        <time>2020-04-04T14:51:34+02:00</time>
      </trkpt>
      <trkpt lat="46.70816" lon="5.68563">
        <ele>525</ele>
        <time>2020-04-04T14:51:39+02:00</time>
      </trkpt>
      <trkpt lat="46.70855" lon="5.68681">
        <ele>525</ele>
        <time>2020-04-04T14:51:44+02:00</time>
      </trkpt>
      <trkpt lat="46.70937" lon="5.68773">
        <ele>527</ele>
        <time>2020-04-04T14:51:49+02:00</time>
      </trkpt>
      <trkpt lat="46.71006" lon="5.68662">
        <ele>529</ele>
        <time>2020-04-04T14:51:54+02:00</time>
      </trkpt>
      <trkpt lat="46.71014" lon="5.68582">
        <ele>529</ele>
        <time>2020-04-04T14:51:59+02:00</time>
      </trkpt>
      <trkpt lat="46.71058" lon="5.68469">
        <ele>530</ele>
        <time>2021-04-08T11:23:19+02:00</time>
      </trkpt>
      <trkpt lat="46.71023" lon="5.68332">
        <ele>528</ele>
        <time>2021-04-08T11:23:24+02:00</time>
      </trkpt>
      <trkpt lat="46.71096" lon="5.68105">
        <ele>521</ele>
        <time>2021-04-08T11:23:29+02:00</time>
      </trkpt>
      <trkpt lat="46.71105" lon="5.68002">
        <ele>516</ele>
        <time>2021-04-08T11:23:34+02:00</time>
      </trkpt>
      <trkpt lat="46.71179" lon="5.68019">
        <ele>519</ele>
        <time>2021-04-08T11:23:39+02:00</time>
      </trkpt>
      <trkpt lat="46.71246" lon="5.67967">
        <ele>519</ele>
        <time>2021-04-08T11:23:44+02:00</time>
      </trkpt>
      <trkpt lat="46.71324" lon="5.68012">
        <ele>520</ele>
        <time>2021-04-08T11:23:49+02:00</time>
      </trkpt>
      <trkpt lat="46.71377" lon="5.68077">
        <ele>520</ele>
        <time>2021-04-08T11:23:54+02:00</time>
      </trkpt>
      <trkpt lat="46.71389" lon="5.68171">
        <ele>524</ele>
        <time>2021-04-08T11:23:59+02:00</time>
      </trkpt>
      <trkpt lat="46.7143" lon="5.68214">
        <ele>528</ele>
        <time>2021-04-08T11:24:04+02:00</time>
      </trkpt>
      <trkpt lat="46.71501" lon="5.68373">
        <ele>530</ele>
        <time>2021-04-08T11:24:09+02:00</time>
      </trkpt>
      <trkpt lat="46.71602" lon="5.68529">
        <ele>536</ele>
        <time>2021-04-08T11:24:14+02:00</time>
      </trkpt>
      <trkpt lat="46.716" lon="5.686">
        <ele>536</ele>
        <time>2021-04-08T11:24:19+02:00</time>
      </trkpt>
      <trkpt lat="46.71558" lon="5.68718">
        <ele>530</ele>
        <time>2021-04-08T11:24:24+02:00</time>
      </trkpt>
      <trkpt lat="46.71572" lon="5.68944">
        <ele>532</ele>
        <time>2021-04-08T11:24:29+02:00</time>
      </trkpt>
      <trkpt lat="46.71542" lon="5.69094">
        <ele>532</ele>
        <time>2021-04-08T11:24:34+02:00</time>
      </trkpt>
      <trkpt lat="46.7148" lon="5.69192">
        <ele>530</ele>
        <time>2021-04-08T11:24:39+02:00</time>
      </trkpt>
      <trkpt lat="46.71485" lon="5.69268">
        <ele>529</ele>
        <time>2020-04-04T14:52:44+02:00</time>
      </trkpt>
      <trkpt lat="46.71518" lon="5.69286">
        <ele>529</ele>
        <time>2021-04-08T11:24:49+02:00</time>
      </trkpt>
      <trkpt lat="46.71592" lon="5.69288">
        <ele>531</ele>
        <time>2021-04-08T11:24:54+02:00</time>
      </trkpt>
      <trkpt lat="46.71701" lon="5.69412">
        <ele>529</ele>
        <time>2021-04-08T11:24:59+02:00</time>
      </trkpt>
      <trkpt lat="46.71854" lon="5.69578">
        <ele>525</ele>
        <time>2021-04-08T11:25:04+02:00</time>
      </trkpt>
      <trkpt lat="46.71805" lon="5.69704">
        <ele>527</ele>
        <time>2021-04-08T11:25:09+02:00</time>
      </trkpt>
      <trkpt lat="46.71845" lon="5.69735">
        <ele>525</ele>
        <time>2021-04-08T11:25:14+02:00</time>
      </trkpt>
      <trkpt lat="46.71951" lon="5.69787">
        <ele>521</ele>
        <time>2021-04-08T11:25:19+02:00</time>
      </trkpt>
      <trkpt lat="46.71992" lon="5.69828">
        <ele>524</ele>
        <time>2021-04-08T11:25:24+02:00</time>
      </trkpt>
      <trkpt lat="46.72075" lon="5.69849">
        <ele>526</ele>
        <time>2021-04-08T11:25:29+02:00</time>
      </trkpt>
      <trkpt lat="46.72195" lon="5.69935">
        <ele>524</ele>
        <time>2021-04-08T11:25:34+02:00</time>
      </trkpt>
      <trkpt lat="46.72316" lon="5.70025">
        <ele>531</ele>
        <time>2021-04-08T11:25:39+02:00</time>
      </trkpt>
      <trkpt lat="46.72326" lon="5.70145">
        <ele>535</ele>
        <time>2021-04-08T11:25:44+02:00</time>
      </trkpt>
      <trkpt lat="46.72351" lon="5.7024">
        <ele>534</ele>
        <time>2021-04-08T11:25:49+02:00</time>
      </trkpt>
      <trkpt lat="46.72354" lon="5.7031">
        <ele>534</ele>
        <time>2021-04-08T11:25:54+02:00</time>
      </trkpt>
      <trkpt lat="46.72416" lon="5.70443">
        <ele>533</ele>
        <time>2021-04-08T11:25:59+02:00</time>
      </trkpt>
      <trkpt lat="46.72441" lon="5.70461">
        <ele>532</ele>
        <time>2021-04-08T11:26:04+02:00</time>
      </trkpt>
      <trkpt lat="46.725" lon="5.70463">
        <ele>531</ele>
        <time>2021-04-08T11:26:09+02:00</time>
      </trkpt>
      <trkpt lat="46.72529" lon="5.70497">
        <ele>530</ele>
        <time>2021-04-08T11:26:14+02:00</time>
      </trkpt>
      <trkpt lat="46.72541" lon="5.70544">
        <ele>530</ele>
        <time>2021-04-08T11:26:19+02:00</time>
      </trkpt>
      <trkpt lat="46.72578" lon="5.70589">
        <ele>529</ele>
        <time>2021-04-08T11:26:24+02:00</time>
      </trkpt>
      <trkpt lat="46.72562" lon="5.7071">
        <ele>527</ele>
        <time>2021-04-08T11:26:29+02:00</time>
      </trkpt>
      <trkpt lat="46.72578" lon="5.70772">
        <ele>526</ele>
        <time>2021-04-08T11:26:34+02:00</time>
      </trkpt>
      <trkpt lat="46.72747" lon="5.70763">
        <ele>530</ele>
        <time>2021-04-08T11:26:39+02:00</time>
      </trkpt>
      <trkpt lat="46.7281" lon="5.70892">
        <ele>531</ele>
        <time>2021-04-08T11:26:44+02:00</time>
      </trkpt>
      <trkpt lat="46.72847" lon="5.70943">
        <ele>529</ele>
        <time>2021-04-08T11:26:49+02:00</time>
      </trkpt>
      <trkpt lat="46.7267" lon="5.71149">
        <ele>535</ele>
        <time>2021-04-08T11:26:54+02:00</time>
      </trkpt>
      <trkpt lat="46.72598" lon="5.71261">
        <ele>539</ele>
        <time>2021-04-08T11:26:59+02:00</time>
      </trkpt>
      <trkpt lat="46.72588" lon="5.71325">
        <ele>541</ele>
        <time>2021-04-08T11:27:04+02:00</time>
      </trkpt>
      <trkpt lat="46.7255" lon="5.71366">
        <ele>545</ele>
        <time>2021-04-08T11:27:09+02:00</time>
      </trkpt>
      <trkpt lat="46.72447" lon="5.71452">
        <ele>550</ele>
        <time>2021-04-08T11:27:14+02:00</time>
      </trkpt>
      <trkpt lat="46.72407" lon="5.71495">
        <ele>550</ele>
        <time>2021-04-08T11:27:19+02:00</time>
      </trkpt>
      <trkpt lat="46.72363" lon="5.71525">
        <ele>547</ele>
        <time>2021-04-08T11:27:24+02:00</time>
      </trkpt>
      <trkpt lat="46.7232" lon="5.71632">
        <ele>544</ele>
        <time>2021-04-08T11:27:29+02:00</time>
      </trkpt>
      <trkpt lat="46.72287" lon="5.71613">
        <ele>541</ele>
        <time>2021-04-08T11:27:34+02:00</time>
      </trkpt>
      <trkpt lat="46.72242" lon="5.7186">
        <ele>547</ele>
        <time>2021-04-08T11:27:39+02:00</time>
      </trkpt>
      <trkpt lat="46.72482" lon="5.71986">
        <ele>546</ele>
        <time>2021-04-08T11:27:44+02:00</time>
      </trkpt>
      <trkpt lat="46.72748" lon="5.72141">
        <ele>537</ele>
        <time>2021-04-08T11:27:49+02:00</time>
      </trkpt>
      <trkpt lat="46.72716" lon="5.72259">
        <ele>543</ele>
        <time>2021-04-08T11:27:54+02:00</time>
      </trkpt>
      <trkpt lat="46.72669" lon="5.72422">
        <ele>547</ele>
        <time>2021-04-08T11:27:59+02:00</time>
      </trkpt>
      <trkpt lat="46.72563" lon="5.72845">
        <ele>556</ele>
        <time>2021-04-08T11:28:04+02:00</time>
      </trkpt>
      <trkpt lat="46.72728" lon="5.72937">
        <ele>550</ele>
        <time>2021-04-08T11:28:09+02:00</time>
      </trkpt>
      <trkpt lat="46.72965" lon="5.73068">
        <ele>551</ele>
        <time>2021-04-08T11:28:14+02:00</time>
      </trkpt>
      <trkpt lat="46.72929" lon="5.73098">
        <ele>551</ele>
        <time>2021-04-08T11:28:19+02:00</time>
      </trkpt>
      <trkpt lat="46.72938" lon="5.73186">
        <ele>555</ele>
        <time>2021-04-08T11:28:24+02:00</time>
      </trkpt>
      <trkpt lat="46.72894" lon="5.73229">
        <ele>556</ele>
        <time>2021-04-08T11:28:29+02:00</time>
      </trkpt>
      <trkpt lat="46.72856" lon="5.73336">
        <ele>558</ele>
        <time>2021-04-08T11:28:34+02:00</time>
      </trkpt>
      <trkpt lat="46.7281" lon="5.7351">
        <ele>562</ele>
        <time>2021-04-08T11:28:39+02:00</time>
      </trkpt>
      <trkpt lat="46.72829" lon="5.73615">
        <ele>565</ele>
        <time>2021-04-08T11:28:44+02:00</time>
      </trkpt>
      <trkpt lat="46.72863" lon="5.73649">
        <ele>565</ele>
        <time>2021-04-08T11:28:49+02:00</time>
      </trkpt>
      <trkpt lat="46.72885" lon="5.73701">
        <ele>565</ele>
        <time>2021-04-08T11:28:54+02:00</time>
      </trkpt>
      <trkpt lat="46.72937" lon="5.73716">
        <ele>564</ele>
        <time>2021-04-08T11:28:59+02:00</time>
      </trkpt>
      <trkpt lat="46.72956" lon="5.7375">
        <ele>564</ele>
        <time>2021-04-08T11:29:04+02:00</time>
      </trkpt>
      <trkpt lat="46.7294" lon="5.73821">
        <ele>564</ele>
        <time>2021-04-08T11:29:09+02:00</time>
      </trkpt>
      <trkpt lat="46.72951" lon="5.73887">
        <ele>564</ele>
        <time>2021-04-08T11:29:14+02:00</time>
      </trkpt>
      <trkpt lat="46.72929" lon="5.7398">
        <ele>564</ele>
        <time>2021-04-08T11:29:19+02:00</time>
      </trkpt>
      <trkpt lat="46.72931" lon="5.74156">
        <ele>568</ele>
        <time>2021-04-08T11:29:24+02:00</time>
      </trkpt>
      <trkpt lat="46.7286" lon="5.74259">
        <ele>572</ele>
        <time>2021-04-08T11:29:29+02:00</time>
      </trkpt>
      <trkpt lat="46.72828" lon="5.74317">
        <ele>573</ele>
        <time>2021-04-08T11:29:34+02:00</time>
      </trkpt>
      <trkpt lat="46.72785" lon="5.74437">
        <ele>577</ele>
        <time>2020-04-04T15:14:04+02:00</time>
      </trkpt>
      <trkpt lat="46.72701" lon="5.74413">
        <ele>575</ele>
        <time>2021-04-08T11:29:44+02:00</time>
      </trkpt>
      <trkpt lat="46.7261" lon="5.74381">
        <ele>576</ele>
        <time>2020-04-04T15:14:09+02:00</time>
      </trkpt>
      <trkpt lat="46.72409" lon="5.74133">
        <ele>573</ele>
        <time>2020-04-04T15:14:14+02:00</time>
      </trkpt>
      <trkpt lat="46.7229" lon="5.73977">
        <ele>574</ele>
        <time>2020-04-04T15:14:19+02:00</time>
      </trkpt>
      <trkpt lat="46.72215" lon="5.73945">
        <ele>574</ele>
        <time>2021-04-08T11:30:04+02:00</time>
      </trkpt>
      <trkpt lat="46.72171" lon="5.73954">
        <ele>575</ele>
        <time>2021-04-08T11:30:09+02:00</time>
      </trkpt>
      <trkpt lat="46.72129" lon="5.73929">
        <ele>576</ele>
        <time>2021-04-08T11:30:14+02:00</time>
      </trkpt>
      <trkpt lat="46.72049" lon="5.73949">
        <ele>577</ele>
        <time>2020-04-04T15:14:24+02:00</time>
      </trkpt>
      <trkpt lat="46.71912" lon="5.73763">
        <ele>575</ele>
        <time>2021-04-08T11:30:24+02:00</time>
      </trkpt>
      <trkpt lat="46.71777" lon="5.73665">
        <ele>576</ele>
        <time>2020-04-04T15:14:29+02:00</time>
      </trkpt>
      <trkpt lat="46.71667" lon="5.73566">
        <ele>573</ele>
        <time>2021-04-08T11:30:34+02:00</time>
      </trkpt>
      <trkpt lat="46.71605" lon="5.73492">
        <ele>573</ele>
        <time>2020-04-04T15:14:34+02:00</time>
      </trkpt>
      <trkpt lat="46.71528" lon="5.735">
        <ele>574</ele>
        <time>2020-04-04T15:14:39+02:00</time>
      </trkpt>
      <trkpt lat="46.71406" lon="5.73409">
        <ele>575</ele>
        <time>2021-04-08T11:30:49+02:00</time>
      </trkpt>
      <trkpt lat="46.71311" lon="5.7337">
        <ele>574</ele>
        <time>2021-04-08T11:30:54+02:00</time>
      </trkpt>
      <trkpt lat="46.71239" lon="5.73355">
        <ele>571</ele>
        <time>2021-04-08T11:30:59+02:00</time>
      </trkpt>
      <trkpt lat="46.71193" lon="5.73326">
        <ele>570</ele>
        <time>2021-04-08T11:31:04+02:00</time>
      </trkpt>
      <trkpt lat="46.71161" lon="5.73249">
        <ele>573</ele>
        <time>2021-04-08T11:31:09+02:00</time>
      </trkpt>
      <trkpt lat="46.71091" lon="5.73242">
        <ele>571</ele>
        <time>2020-04-04T15:14:44+02:00</time>
      </trkpt>
      <trkpt lat="46.71047" lon="5.73161">
        <ele>571</ele>
        <time>2021-04-08T11:31:19+02:00</time>
      </trkpt>
      <trkpt lat="46.70995" lon="5.73109">
        <ele>573</ele>
        <time>2021-04-08T11:31:24+02:00</time>
      </trkpt>
      <trkpt lat="46.70831" lon="5.7305">
        <ele>570</ele>
        <time>2020-04-04T15:14:49+02:00</time>
      </trkpt>
      <trkpt lat="46.7076" lon="5.73101">
        <ele>571</ele>
        <time>2020-04-04T15:14:54+02:00</time>
      </trkpt>
      <trkpt lat="46.70664" lon="5.73054">
        <ele>571</ele>
        <time>2020-04-04T15:14:59+02:00</time>
      </trkpt>
      <trkpt lat="46.70632" lon="5.7316">
        <ele>574</ele>
        <time>2021-04-08T11:31:44+02:00</time>
      </trkpt>
      <trkpt lat="46.70618" lon="5.73286">
        <ele>577</ele>
        <time>2020-04-04T15:15:04+02:00</time>
      </trkpt>
      <trkpt lat="46.70554" lon="5.73435">
        <ele>582</ele>
        <time>2020-04-04T15:15:09+02:00</time>
      </trkpt>
      <trkpt lat="46.70482" lon="5.73397">
        <ele>582</ele>
        <time>2021-04-08T11:31:59+02:00</time>
      </trkpt>
      <trkpt lat="46.70356" lon="5.73294">
        <ele>583</ele>
        <time>2020-04-04T15:15:14+02:00</time>
      </trkpt>
      <trkpt lat="46.70265" lon="5.7329">
        <ele>586</ele>
        <time>2021-04-08T11:32:09+02:00</time>
      </trkpt>
      <trkpt lat="46.70185" lon="5.73236">
        <ele>587</ele>
        <time>2020-04-04T15:15:19+02:00</time>
      </trkpt>
      <trkpt lat="46.70112" lon="5.7324">
        <ele>591</ele>
        <time>2021-04-08T11:32:19+02:00</time>
      </trkpt>
      <trkpt lat="46.70023" lon="5.73248">
        <ele>596</ele>
        <time>2021-04-08T11:32:24+02:00</time>
      </trkpt>
      <trkpt lat="46.69975" lon="5.73236">
        <ele>597</ele>
        <time>2021-04-08T11:32:29+02:00</time>
      </trkpt>
      <trkpt lat="46.69959" lon="5.73246">
        <ele>597</ele>
        <time>2021-04-08T11:32:34+02:00</time>
      </trkpt>
      <trkpt lat="46.69903" lon="5.7325">
        <ele>600</ele>
        <time>2021-04-08T11:32:39+02:00</time>
      </trkpt>
      <trkpt lat="46.69866" lon="5.73263">
        <ele>609</ele>
        <time>2021-04-08T11:32:44+02:00</time>
      </trkpt>
      <trkpt lat="46.69861" lon="5.73303">
        <ele>616</ele>
        <time>2020-04-04T15:15:24+02:00</time>
      </trkpt>
    </trkseg>
  </trk>
</gpx>